Terminal Aerodrome Forecast
Issued by NWS

Home | Current Version | Previous Version | Text Only | Print | Product List | Glossary On
Versions: 1 2 3 4 5 6 7 8 9 10 11 12 13 14
328
FTUS42 KMHX 120556
TAFISO
TAF
KISO 120556Z 1206/1306 03003KT P6SM SCT100
     FM121500 06005KT 4SM -SN OVC020
     FM121700 07005KT 2SM -SNPL OVC009
     FM122100 02005KT 4SM -FZRAPL OVC005
     FM130200 29004KT P6SM SCT010
      AMD LTD TO CLD VIS AND WIND=

USA.gov is the U.S. government's official web portal to all federal, state and local government web resources and services.